Time;durP1;ratioP1;P1;durP2;ratioP2;P2;SDS_P1;SDS_P2;PMS_P1;PMS_P2;Temp;Humidity;BMP_temperature;BMP_pressure;BME280_temperature;BME280_humidity;BME280_pressure;Samples;Min_cycle;Max_cycle;Signal;HPM_P1;HPM_P2
2023/06/26 00:00:47;;;;;;;11.90;10.32;;;22.00;99.90;;;;;;4927429;29;20060;-77
2023/06/26 00:03:14;;;;;;;13.80;9.88;;;21.90;99.90;;;;;;4908827;29;20149;-77
2023/06/26 00:05:42;;;;;;;12.50;10.18;;;21.90;99.90;;;;;;4910019;29;21013;-77
2023/06/26 00:08:10;;;;;;;13.23;9.48;;;21.10;99.90;;;;;;4895257;29;20546;-77
2023/06/26 00:10:38;;;;;;;10.63;9.02;;;21.90;99.90;;;;;;4925505;29;20523;-77
2023/06/26 00:13:05;;;;;;;13.63;9.45;;;21.90;99.90;;;;;;4928231;28;20058;-77
2023/06/26 00:15:33;;;;;;;13.63;10.00;;;21.90;99.90;;;;;;4976017;28;20065;-77
2023/06/26 00:17:59;;;;;;;10.80;9.70;;;21.90;99.90;;;;;;4976326;28;20049;-76
2023/06/26 00:20:33;;;;;;;10.55;8.88;;;21.90;99.90;;;;;;4963108;28;20141;-77
2023/06/26 00:23:07;;;;;;;11.63;9.27;;;21.90;99.90;;;;;;4965142;28;20067;-77
2023/06/26 00:25:34;;;;;;;11.20;9.02;;;21.90;99.90;;;;;;4945631;28;20082;-77
2023/06/26 00:28:05;;;;;;;10.38;8.95;;;21.90;99.90;;;;;;4975571;28;20564;-77
2023/06/26 00:30:32;;;;;;;13.68;9.50;;;21.80;99.90;;;;;;4945593;28;20117;-76
2023/06/26 00:33:05;;;;;;;10.80;9.10;;;21.80;99.90;;;;;;4975141;28;20060;-77
2023/06/26 00:35:51;;;;;;;11.52;9.25;;;21.80;99.90;;;;;;4949386;28;20141;-76
2023/06/26 00:38:21;;;;;;;11.15;9.27;;;21.80;99.90;;;;;;4960491;28;20078;-77
2023/06/26 00:40:54;;;;;;;10.73;9.35;;;21.80;99.90;;;;;;4964935;28;20077;-77
2023/06/26 00:43:27;;;;;;;9.70;8.70;;;21.80;99.90;;;;;;4975717;28;20113;-77
2023/06/26 00:46:31;;;;;;;11.57;10.30;;;21.80;99.90;;;;;;5001440;28;20044;-78
2023/06/26 00:49:20;;;;;;;12.23;10.00;;;21.80;99.90;;;;;;5022728;28;20048;-77
2023/06/26 00:52:07;;;;;;;12.65;9.93;;;21.80;99.90;;;;;;5020251;28;20067;-76
2023/06/26 00:54:34;;;;;;;10.15;8.57;;;21.80;99.90;;;;;;5016802;28;20049;-77
2023/06/26 00:57:02;;;;;;;12.15;10.45;;;21.80;99.90;;;;;;5002882;28;20080;-77
2023/06/26 00:59:36;;;;;;;12.68;8.50;;;21.80;99.90;;;;;;5034354;28;20557;-77
2023/06/26 01:02:02;;;;;;;12.50;9.10;;;21.80;99.90;;;;;;5015871;28;20072;-77
2023/06/26 01:04:32;;;;;;;10.07;9.00;;;21.80;99.90;;;;;;5022650;28;20096;-78
2023/06/26 01:07:22;;;;;;;11.32;9.23;;;21.90;99.90;;;;;;5025951;28;20538;-76
2023/06/26 01:09:56;;;;;;;10.18;8.88;;;21.90;99.90;;;;;;5023865;28;20262;-77
2023/06/26 01:12:23;;;;;;;11.13;8.52;;;22.00;99.90;;;;;;5035353;28;20123;-77
2023/06/26 01:14:49;;;;;;;10.32;8.88;;;22.00;99.90;;;;;;5017568;28;20041;-78
2023/06/26 01:17:16;;;;;;;9.57;7.53;;;22.00;99.90;;;;;;4987457;28;20057;-78
2023/06/26 01:19:43;;;;;;;7.78;6.53;;;22.20;99.90;;;;;;5025634;28;20136;-76
2023/06/26 01:22:44;;;;;;;8.80;5.47;;;22.30;99.90;;;;;;5036293;28;20451;-78
2023/06/26 01:25:40;;;;;;;6.53;5.47;;;22.60;99.90;;;;;;5021246;28;20488;-77
2023/06/26 01:28:06;;;;;;;6.57;5.30;;;22.80;99.90;;;;;;5006672;28;20045;-79
2023/06/26 01:30:42;;;;;;;5.65;5.05;;;22.90;99.90;;;;;;5008482;28;20056;-77
2023/06/26 01:33:08;;;;;;;10.00;4.70;;;23.10;99.90;;;;;;5033555;28;20363;-77
2023/06/26 01:35:38;;;;;;;6.28;3.88;;;23.10;99.90;;;;;;4989813;28;20080;-77
2023/06/26 01:38:23;;;;;;;7.03;4.53;;;23.20;99.90;;;;;;5022569;28;20107;-76
2023/06/26 01:40:59;;;;;;;7.00;4.70;;;23.20;99.90;;;;;;5034581;28;20044;-77
2023/06/26 01:43:31;;;;;;;7.15;4.50;;;23.30;99.90;;;;;;5017140;28;20498;-78
2023/06/26 01:46:05;;;;;;;6.70;4.38;;;23.30;99.90;;;;;;5035134;28;20044;-77
2023/06/26 01:48:44;;;;;;;6.88;4.65;;;23.50;99.90;;;;;;5024064;28;20470;-76
2023/06/26 01:51:15;;;;;;;6.78;4.72;;;23.20;99.90;;;;;;5004629;28;20098;-76
2023/06/26 01:53:48;;;;;;;7.60;4.60;;;23.20;99.90;;;;;;5022499;28;20057;-77
2023/06/26 01:56:16;;;;;;;9.00;4.40;;;23.20;99.90;;;;;;5050630;28;20432;-77
2023/06/26 01:58:47;;;;;;;7.57;4.88;;;23.10;99.90;;;;;;4993199;28;20133;-77
2023/06/26 02:01:45;;;;;;;10.95;5.10;;;23.00;99.90;;;;;;5035662;28;20520;-76
2023/06/26 02:04:15;;;;;;;8.13;5.30;;;22.80;99.90;;;;;;5035524;28;20056;-78
2023/06/26 02:06:52;;;;;;;8.05;6.05;;;22.60;99.90;;;;;;5026089;28;20053;-79
2023/06/26 02:09:21;;;;;;;12.77;5.95;;;22.60;99.90;;;;;;5039213;28;20096;-77
2023/06/26 02:11:47;;;;;;;10.43;5.72;;;22.50;99.90;;;;;;5011054;28;20052;-77
2023/06/26 02:14:15;;;;;;;10.75;6.03;;;22.40;99.90;;;;;;5022404;28;20092;-77
2023/06/26 02:16:43;;;;;;;10.23;6.30;;;22.30;99.90;;;;;;5020077;28;20089;-77
2023/06/26 02:19:09;;;;;;;12.32;6.63;;;22.30;99.90;;;;;;5004204;28;20122;-79
2023/06/26 02:21:38;;;;;;;12.23;6.40;;;22.20;99.90;;;;;;5023546;28;20148;-76
2023/06/26 02:24:05;;;;;;;15.10;6.20;;;22.10;99.90;;;;;;5023536;28;20119;-77
2023/06/26 02:26:39;;;;;;;12.45;6.55;;;22.00;99.90;;;;;;4991305;28;20193;-79
2023/06/26 02:29:09;;;;;;;12.25;6.05;;;22.00;99.90;;;;;;5041637;28;20045;-77
2023/06/26 02:31:45;;;;;;;11.50;6.35;;;21.90;99.90;;;;;;5023808;28;20511;-77
2023/06/26 02:34:11;;;;;;;11.00;6.40;;;21.80;99.90;;;;;;5025324;28;20052;-77
2023/06/26 02:36:45;;;;;;;9.00;6.45;;;21.80;99.90;;;;;;5039358;28;20061;-78
2023/06/26 02:39:20;;;;;;;9.73;6.70;;;21.70;99.90;;;;;;5020252;28;20056;-77
2023/06/26 02:41:54;;;;;;;13.13;7.05;;;21.70;99.90;;;;;;5038239;28;20124;-78
2023/06/26 02:44:29;;;;;;;11.45;7.00;;;21.70;99.90;;;;;;5037154;28;20516;-77
2023/06/26 02:47:01;;;;;;;10.07;6.35;;;21.70;99.90;;;;;;5018955;28;20053;-78
2023/06/26 02:49:29;;;;;;;9.30;6.20;;;21.60;99.90;;;;;;5021613;28;20049;-77
2023/06/26 02:52:01;;;;;;;11.18;6.68;;;21.70;99.90;;;;;;5004371;28;20177;-77
2023/06/26 02:54:27;;;;;;;11.30;6.68;;;21.50;99.90;;;;;;5021189;28;20045;-76
2023/06/26 02:57:03;;;;;;;12.15;6.15;;;21.50;99.90;;;;;;4994784;28;20118;-77
2023/06/26 02:59:30;;;;;;;9.60;6.70;;;21.40;99.90;;;;;;5006032;28;20444;-77
2023/06/26 03:01:57;;;;;;;13.32;6.47;;;21.40;99.90;;;;;;5011190;28;20098;-76
2023/06/26 03:04:28;;;;;;;10.50;7.13;;;21.30;99.90;;;;;;5039161;28;20079;-77
2023/06/26 03:06:55;;;;;;;15.38;7.13;;;21.30;99.90;;;;;;5044440;28;20046;-77
2023/06/26 03:09:22;;;;;;;12.07;7.45;;;21.20;99.90;;;;;;5011349;28;20081;-76
2023/06/26 03:12:01;;;;;;;13.25;7.03;;;21.20;99.90;;;;;;5022758;28;20115;-80
2023/06/26 03:14:33;;;;;;;11.80;6.35;;;21.10;99.90;;;;;;5032488;28;20075;-77
2023/06/26 03:17:08;;;;;;;11.98;7.20;;;21.10;99.90;;;;;;5040944;28;20041;-78
2023/06/26 03:19:40;;;;;;;15.00;7.28;;;21.00;99.90;;;;;;4992449;28;20040;-78
2023/06/26 03:22:07;;;;;;;13.30;6.55;;;20.90;99.90;;;;;;5036996;28;20456;-76
2023/06/26 03:24:39;;;;;;;13.50;6.60;;;20.20;99.90;;;;;;5025616;28;20053;-78
2023/06/26 03:27:05;;;;;;;9.10;6.03;;;20.80;99.90;;;;;;5008695;28;20061;-78
2023/06/26 03:29:32;;;;;;;19.23;6.30;;;20.70;99.90;;;;;;5003357;28;20529;-76
2023/06/26 03:32:05;;;;;;;13.73;6.97;;;20.70;99.90;;;;;;5004058;28;20055;-77
2023/06/26 03:34:34;;;;;;;12.95;5.93;;;20.60;99.90;;;;;;5022163;28;20052;-77
2023/06/26 03:37:02;;;;;;;15.23;6.68;;;20.60;99.90;;;;;;5023562;28;20042;-78
2023/06/26 03:39:28;;;;;;;11.18;5.70;;;20.60;99.90;;;;;;5022717;28;20067;-77
2023/06/26 03:42:10;;;;;;;10.45;5.18;;;20.60;99.90;;;;;;5039246;28;20151;-77
2023/06/26 03:44:41;;;;;;;10.98;5.00;;;20.60;99.90;;;;;;5021617;28;20055;-77
2023/06/26 03:47:10;;;;;;;9.85;4.65;;;20.60;99.90;;;;;;5039230;28;20135;-76
2023/06/26 03:49:41;;;;;;;9.00;4.22;;;20.60;99.90;;;;;;5021879;28;20050;-76
2023/06/26 03:52:11;;;;;;;10.32;4.38;;;20.50;99.90;;;;;;5019480;28;20444;-77
2023/06/26 03:54:37;;;;;;;11.68;4.85;;;20.50;99.90;;;;;;5039236;28;20476;-78
2023/06/26 03:57:03;;;;;;;11.25;4.20;;;20.50;99.90;;;;;;5002792;28;20040;-78
2023/06/26 03:59:31;;;;;;;10.05;4.13;;;20.50;99.90;;;;;;5006265;28;20049;-78
2023/06/26 04:01:57;;;;;;;10.50;3.80;;;20.40;99.90;;;;;;4993069;28;20107;-78
2023/06/26 04:04:36;;;;;;;8.88;3.70;;;20.40;99.90;;;;;;5019729;28;20129;-78
2023/06/26 04:07:14;;;;;;;12.88;4.32;;;20.40;99.90;;;;;;5019027;28;20064;-78
2023/06/26 04:09:42;;;;;;;11.25;3.50;;;20.30;99.90;;;;;;5003316;28;20798;-77
2023/06/26 04:12:09;;;;;;;10.02;3.60;;;20.30;99.90;;;;;;5035581;28;20056;-77
2023/06/26 04:14:56;;;;;;;9.52;3.33;;;20.30;99.90;;;;;;5004004;28;20041;-77
2023/06/26 04:17:29;;;;;;;10.70;3.42;;;20.20;99.90;;;;;;5049367;28;20110;-78
2023/06/26 04:20:16;;;;;;;11.23;3.38;;;20.10;99.90;;;;;;5025331;28;20077;-78
2023/06/26 04:22:50;;;;;;;8.63;3.45;;;20.10;99.90;;;;;;5034907;28;20469;-80
2023/06/26 04:25:17;;;;;;;9.32;3.00;;;20.00;99.90;;;;;;5023994;28;20044;-77
2023/06/26 04:28:07;;;;;;;11.75;3.90;;;19.90;99.90;;;;;;5026002;28;20503;-78
2023/06/26 04:30:32;;;;;;;10.32;3.50;;;19.90;99.90;;;;;;5015406;28;20761;-77
2023/06/26 04:33:01;;;;;;;8.77;3.35;;;19.80;99.90;;;;;;5024130;28;20041;-77
2023/06/26 04:35:36;;;;;;;9.52;3.08;;;19.80;99.90;;;;;;5022437;28;20045;-77
2023/06/26 04:38:17;;;;;;;9.18;3.22;;;20.20;99.90;;;;;;5006101;28;20565;-78
2023/06/26 04:40:44;;;;;;;7.35;2.80;;;19.80;99.90;;;;;;5035634;28;20508;-78
2023/06/26 04:43:38;;;;;;;8.85;2.75;;;19.70;99.90;;;;;;5013954;28;20061;-78
2023/06/26 04:46:11;;;;;;;8.07;3.00;;;19.80;99.90;;;;;;5007123;28;20041;-76
2023/06/26 04:48:37;;;;;;;8.82;2.47;;;19.80;99.90;;;;;;5003616;28;20053;-76
2023/06/26 04:51:10;;;;;;;8.88;2.67;;;19.80;99.90;;;;;;5003047;28;20048;-76
2023/06/26 04:53:37;;;;;;;6.65;2.65;;;19.80;99.90;;;;;;5006416;28;20049;-78
2023/06/26 04:56:05;;;;;;;9.43;2.63;;;19.70;99.90;;;;;;4989843;28;20038;-76
2023/06/26 04:58:31;;;;;;;8.80;2.45;;;19.80;99.90;;;;;;5018734;28;20041;-76
2023/06/26 05:00:58;;;;;;;10.27;2.55;;;19.80;99.90;;;;;;4999942;28;20080;-78
2023/06/26 05:03:28;;;;;;;10.85;2.67;;;19.80;99.90;;;;;;5033197;28;20689;-76
2023/06/26 05:05:54;;;;;;;8.57;2.70;;;19.80;99.90;;;;;;5018838;28;20117;-76
2023/06/26 05:08:27;;;;;;;8.05;2.15;;;19.90;99.90;;;;;;5000716;28;20153;-77
2023/06/26 05:11:14;;;;;;;7.03;2.13;;;20.00;99.90;;;;;;5034225;28;20045;-79
2023/06/26 05:13:53;;;;;;;6.68;2.33;;;20.00;99.90;;;;;;5033227;28;20487;-73
2023/06/26 05:16:19;;;;;;;7.72;2.25;;;20.00;99.90;;;;;;5015063;28;20087;-72
2023/06/26 05:18:51;;;;;;;6.20;2.15;;;20.00;99.90;;;;;;5002347;28;20517;-74
2023/06/26 05:21:28;;;;;;;4.82;2.35;;;20.00;99.90;;;;;;4983729;28;20041;-74
2023/06/26 05:24:21;;;;;;;7.85;2.47;;;20.00;99.90;;;;;;5023978;28;20049;-74
2023/06/26 05:26:58;;;;;;;9.43;2.50;;;20.00;99.90;;;;;;5020682;28;20099;-74
2023/06/26 05:29:28;;;;;;;5.18;2.20;;;20.00;99.90;;;;;;5004682;28;20176;-75
2023/06/26 05:38:22;;;;;;;8.32;2.20;;;20.10;99.90;;;;;;4977773;28;20097;-74
2023/06/26 05:41:03;;;;;;;8.25;2.55;;;20.10;99.90;;;;;;4981308;28;20616;-74
2023/06/26 05:43:29;;;;;;;8.95;2.20;;;20.10;99.90;;;;;;4975123;28;20065;-74
2023/06/26 05:45:57;;;;;;;7.82;2.15;;;20.20;99.90;;;;;;4948474;28;20035;-74
2023/06/26 05:48:25;;;;;;;8.35;2.58;;;20.30;99.90;;;;;;4962736;28;20042;-76
2023/06/26 05:50:57;;;;;;;9.07;2.42;;;20.30;99.90;;;;;;4947288;28;20046;-75
2023/06/26 05:53:29;;;;;;;7.05;2.10;;;20.30;99.90;;;;;;4961562;28;20073;-74
2023/06/26 05:55:56;;;;;;;9.68;2.92;;;20.40;99.90;;;;;;4947864;28;20156;-73
2023/06/26 05:58:29;;;;;;;5.53;1.92;;;20.40;99.90;;;;;;4949126;28;20117;-73
2023/06/26 06:00:55;;;;;;;8.95;2.65;;;20.50;99.90;;;;;;4962759;28;20097;-73
2023/06/26 06:03:21;;;;;;;8.00;2.20;;;20.50;99.90;;;;;;5004793;28;20060;-73
2023/06/26 06:05:47;;;;;;;5.20;1.90;;;20.50;99.90;;;;;;5001391;28;20037;-74
2023/06/26 06:08:12;;;;;;;7.88;1.92;;;20.50;99.90;;;;;;5002284;28;20504;-74
2023/06/26 06:10:38;;;;;;;5.90;1.75;;;20.50;99.90;;;;;;5022698;28;20147;-73
2023/06/26 06:13:04;;;;;;;3.28;1.77;;;20.60;99.90;;;;;;5022714;28;20080;-74
2023/06/26 06:15:29;;;;;;;4.55;1.80;;;20.60;99.90;;;;;;5018196;28;20045;-75
2023/06/26 06:17:55;;;;;;;5.63;1.85;;;20.70;99.90;;;;;;5017479;28;20044;-74
2023/06/26 06:20:21;;;;;;;6.40;1.95;;;20.80;99.90;;;;;;4986575;28;20051;-73
2023/06/26 06:22:48;;;;;;;4.80;1.88;;;20.80;99.90;;;;;;5020491;28;20499;-74
2023/06/26 06:25:15;;;;;;;4.75;2.03;;;20.90;99.90;;;;;;5000126;28;20114;-75
2023/06/26 06:27:41;;;;;;;5.43;1.98;;;20.90;99.90;;;;;;5019877;28;20072;-74
2023/06/26 06:30:07;;;;;;;6.13;2.17;;;21.00;99.90;;;;;;5017508;28;20071;-73
2023/06/26 06:32:33;;;;;;;5.70;1.90;;;21.00;99.90;;;;;;5020418;28;20053;-78
2023/06/26 06:35:08;;;;;;;4.90;2.10;;;21.10;99.90;;;;;;5022901;28;20045;-78
2023/06/26 06:37:34;;;;;;;7.20;2.17;;;21.20;99.90;;;;;;5003361;28;20250;-77
2023/06/26 06:40:00;;;;;;;7.43;2.17;;;21.30;99.90;;;;;;5022501;28;20052;-77
2023/06/26 06:42:25;;;;;;;4.28;1.65;;;21.40;99.90;;;;;;5020914;28;20940;-78
2023/06/26 06:44:51;;;;;;;5.35;2.17;;;21.30;99.90;;;;;;5006455;28;20052;-79
2023/06/26 06:47:17;;;;;;;6.38;2.35;;;21.30;99.90;;;;;;5023944;28;20535;-78
2023/06/26 06:49:43;;;;;;;3.75;2.10;;;21.30;99.90;;;;;;4989521;28;20061;-77
2023/06/26 06:52:08;;;;;;;5.80;2.22;;;21.30;99.90;;;;;;5026163;28;21168;-78
2023/06/26 06:54:52;;;;;;;8.43;2.25;;;21.30;99.90;;;;;;5019424;28;20151;-78
2023/06/26 06:57:20;;;;;;;6.88;2.45;;;21.40;99.90;;;;;;5008829;28;20045;-77
2023/06/26 06:59:47;;;;;;;6.25;2.20;;;21.50;99.90;;;;;;5026686;28;20042;-78
2023/06/26 07:02:13;;;;;;;5.78;2.38;;;21.60;99.90;;;;;;4990561;28;20085;-78
2023/06/26 07:04:39;;;;;;;6.57;2.28;;;21.60;99.90;;;;;;5033908;28;20056;-77
2023/06/26 07:07:05;;;;;;;8.20;2.38;;;21.50;99.90;;;;;;5024062;28;20103;-78
2023/06/26 07:09:30;;;;;;;4.78;2.10;;;21.60;99.90;;;;;;5021806;28;20049;-77
2023/06/26 07:12:00;;;;;;;7.82;2.30;;;21.80;99.90;;;;;;5038829;28;20037;-77
2023/06/26 07:14:25;;;;;;;8.00;2.70;;;21.70;99.90;;;;;;5002072;28;21952;-78
2023/06/26 07:16:51;;;;;;;4.95;2.22;;;21.60;99.90;;;;;;5004164;28;20041;-78
2023/06/26 07:19:17;;;;;;;6.65;2.28;;;21.50;99.90;;;;;;5009384;28;20048;-78
2023/06/26 07:21:44;;;;;;;7.65;2.60;;;21.60;99.90;;;;;;5005928;28;20465;-77
2023/06/26 07:24:10;;;;;;;7.20;2.50;;;21.70;99.90;;;;;;5025380;28;20072;-77
2023/06/26 07:26:36;;;;;;;7.10;2.38;;;21.60;99.90;;;;;;5021043;28;20053;-79
2023/06/26 07:29:02;;;;;;;7.13;2.30;;;21.80;99.90;;;;;;5016735;28;20103;-74
2023/06/26 07:31:27;;;;;;;7.90;2.20;;;21.70;99.90;;;;;;5002064;28;20610;-72
2023/06/26 07:33:53;;;;;;;8.48;2.55;;;21.70;99.90;;;;;;5023844;28;20045;-71
2023/06/26 07:36:19;;;;;;;6.78;2.30;;;21.70;99.90;;;;;;5022202;28;20053;-71
2023/06/26 07:38:45;;;;;;;6.72;2.65;;;21.80;99.90;;;;;;5019901;28;20439;-72
2023/06/26 07:41:11;;;;;;;8.38;2.38;;;21.80;99.90;;;;;;5015339;28;20094;-71
2023/06/26 07:43:37;;;;;;;7.05;2.80;;;21.90;99.90;;;;;;5003516;28;20068;-71
2023/06/26 07:46:02;;;;;;;6.85;2.90;;;22.10;99.90;;;;;;5025790;28;20057;-71
2023/06/26 07:48:28;;;;;;;8.43;2.40;;;22.30;99.90;;;;;;5001823;28;20040;-71
2023/06/26 07:50:54;;;;;;;5.68;2.63;;;22.40;99.90;;;;;;5001766;28;20163;-73
2023/06/26 07:53:20;;;;;;;7.97;3.00;;;22.60;99.90;;;;;;5018582;28;20053;-72
2023/06/26 07:55:45;;;;;;;6.15;2.60;;;22.70;99.90;;;;;;5036465;28;20068;-71
2023/06/26 07:58:11;;;;;;;6.72;2.92;;;22.60;99.90;;;;;;5002657;28;20459;-73
2023/06/26 08:00:37;;;;;;;4.88;2.50;;;22.80;99.90;;;;;;5023571;28;20108;-70
2023/06/26 08:03:03;;;;;;;8.20;3.00;;;22.80;99.90;;;;;;5036020;28;20503;-72
2023/06/26 08:05:29;;;;;;;8.10;3.00;;;22.80;99.90;;;;;;5024530;28;20403;-71
2023/06/26 08:08:03;;;;;;;8.93;2.90;;;22.80;99.90;;;;;;5002345;28;20060;-74
2023/06/26 08:11:03;;;;;;;4.50;2.90;;;22.80;99.90;;;;;;5035939;28;20057;-74
2023/06/26 08:14:32;;;;;;;6.43;3.03;;;22.80;99.90;;;;;;5036374;28;20111;-74
2023/06/26 08:16:59;;;;;;;7.07;2.80;;;22.90;99.90;;;;;;4994465;28;20078;-72
2023/06/26 08:23:24;;;;;;;7.68;2.90;;;23.20;99.90;;;;;;4995467;28;20049;-76
2023/06/26 08:26:18;;;;;;;7.25;3.03;;;23.40;99.90;;;;;;4980949;28;20136;-76
2023/06/26 08:29:12;;;;;;;8.57;3.75;;;23.40;99.90;;;;;;4979833;28;20050;-76
2023/06/26 08:32:21;;;;;;;7.88;3.20;;;23.30;99.90;;;;;;4983766;28;20086;-77
2023/06/26 08:35:21;;;;;;;6.68;3.58;;;23.10;99.90;;;;;;4971182;28;20054;-77
2023/06/26 08:38:48;;;;;;;10.27;3.50;;;23.30;99.90;;;;;;4976330;28;20049;-76
2023/06/26 08:41:57;;;;;;;6.93;3.22;;;23.20;99.90;;;;;;4995945;28;20125;-77
2023/06/26 08:44:26;;;;;;;5.82;2.92;;;23.30;99.90;;;;;;4979107;28;20128;-77
2023/06/26 08:47:16;;;;;;;5.07;2.78;;;23.70;99.90;;;;;;4943545;28;20068;-76
2023/06/26 08:50:42;;;;;;;11.00;3.70;;;23.80;99.90;;;;;;5037465;28;20526;-76
2023/06/26 08:57:25;;;;;;;10.65;3.10;;;23.30;99.90;;;;;;5038468;28;20049;-76
2023/06/26 09:00:31;;;;;;;8.00;2.80;;;23.20;99.90;;;;;;5019705;28;20057;-77
2023/06/26 09:03:18;;;;;;;5.43;2.30;;;23.40;99.90;;;;;;5010186;28;20523;-77
2023/06/26 09:09:33;;;;;;;;;;;23.50;99.90;;;;;;5036955;28;20049;-77
2023/06/26 09:13:03;;;;;;;6.05;2.20;;;23.40;99.90;;;;;;4992658;28;19920;-76
2023/06/26 09:16:56;;;;;;;8.45;2.30;;;23.70;99.90;;;;;;5002025;28;20045;-77
2023/06/26 09:19:31;;;;;;;8.15;2.20;;;23.80;99.90;;;;;;5035418;28;20097;-75
2023/06/26 09:22:39;;;;;;;4.65;2.08;;;23.70;99.90;;;;;;5036845;28;20446;-75
2023/06/26 09:25:52;;;;;;;6.57;2.17;;;23.70;99.90;;;;;;5021490;28;20514;-75
2023/06/26 09:28:54;;;;;;;6.63;2.25;;;23.70;99.90;;;;;;5037174;28;20060;-74
2023/06/26 09:32:09;;;;;;;5.38;1.73;;;24.00;99.90;;;;;;5024214;28;20499;-76
2023/06/26 09:34:37;;;;;;;7.32;1.80;;;24.00;99.90;;;;;;5038655;28;20119;-73
2023/06/26 09:37:30;;;;;;;7.43;1.98;;;24.10;99.90;;;;;;5026828;28;20081;-75
2023/06/26 09:40:44;;;;;;;7.53;2.13;;;24.20;99.90;;;;;;5051267;28;20043;-77
2023/06/26 09:44:08;;;;;;;7.20;2.00;;;24.30;99.90;;;;;;5033137;28;20049;-75
2023/06/26 09:47:44;;;;;;;8.32;1.90;;;24.10;99.90;;;;;;5019655;28;20045;-74
2023/06/26 09:50:28;;;;;;;8.23;2.30;;;24.40;99.90;;;;;;5019836;28;20120;-75
2023/06/26 09:56:54;;;;;;;9.70;1.75;;;24.60;99.90;;;;;;5017904;28;20016;-75
2023/06/26 09:59:58;;;;;;;8.43;2.03;;;25.00;99.50;;;;;;4962202;28;20062;-76
2023/06/26 10:02:58;;;;;;;6.45;2.10;;;25.10;99.20;;;;;;4944260;28;20181;-75
2023/06/26 10:06:01;;;;;;;8.00;1.98;;;25.00;98.90;;;;;;4961871;28;20107;-75
2023/06/26 10:09:28;;;;;;;6.47;2.00;;;25.00;98.90;;;;;;4963295;28;20058;-75
2023/06/26 10:12:37;;;;;;;11.30;2.08;;;24.90;98.80;;;;;;4898257;29;20553;-74
2023/06/26 10:16:01;;;;;;;8.90;2.22;;;24.80;98.90;;;;;;4913699;29;20107;-74
2023/06/26 10:22:34;;;;;;;6.63;1.92;;;24.80;99.00;;;;;;4937177;29;20099;-75
2023/06/26 10:25:29;;;;;;;11.65;2.40;;;24.80;98.80;;;;;;4908128;29;20083;-73
2023/06/26 10:28:33;;;;;;;9.82;1.95;;;24.70;99.00;;;;;;4914526;29;20050;-73
2023/06/26 10:35:28;;;;;;;6.97;2.15;;;24.30;98.50;;;;;;4916444;29;20138;-75
2023/06/26 10:38:04;;;;;;;6.97;1.88;;;24.70;99.00;;;;;;4899940;29;20147;-74
2023/06/26 10:41:22;;;;;;;8.70;1.98;;;24.50;99.00;;;;;;4893865;29;20561;-77
2023/06/26 10:44:24;;;;;;;8.10;2.20;;;24.10;98.90;;;;;;4918338;29;20067;-76
2023/06/26 10:54:20;;;;;;;8.60;2.38;;;23.90;99.30;;;;;;4980074;28;20342;-76
2023/06/26 10:57:11;;;;;;;9.77;2.50;;;23.80;99.30;;;;;;4979327;28;20058;-76
2023/06/26 11:00:06;;;;;;;10.15;2.40;;;23.90;98.90;;;;;;4976375;28;20066;-75
2023/06/26 11:03:17;;;;;;;11.27;2.63;;;23.60;99.20;;;;;;5015448;28;20189;-75
2023/06/26 11:06:08;;;;;;;10.45;2.45;;;23.80;99.20;;;;;;4996076;28;20080;-73
2023/06/26 11:12:48;;;;;;;6.68;2.30;;;23.40;99.40;;;;;;5004702;28;20575;-73
2023/06/26 11:16:19;;;;;;;7.72;2.28;;;23.10;99.60;;;;;;5039576;28;20067;-74
2023/06/26 11:19:35;;;;;;;5.72;2.10;;;23.20;99.80;;;;;;4987202;28;20058;-72
2023/06/26 11:22:27;;;;;;;;;;;23.10;99.60;;;;;;4983292;28;20129;-73
2023/06/26 11:29:10;;;;;;;7.80;2.00;;;23.30;99.40;;;;;;4986183;28;20141;-73
2023/06/26 11:32:02;;;;;;;9.27;2.03;;;23.00;99.70;;;;;;4975706;28;20086;-75
2023/06/26 11:34:58;;;;;;;8.75;2.42;;;23.10;99.90;;;;;;4984916;28;20413;-72
2023/06/26 11:37:35;;;;;;;10.52;2.13;;;23.20;99.70;;;;;;4986245;28;20181;-73
2023/06/26 11:40:31;;;;;;;6.50;1.75;;;23.00;99.50;;;;;;4937456;28;20145;-73
2023/06/26 11:43:22;;;;;;;10.80;2.47;;;22.70;99.70;;;;;;4986025;28;20078;-73
2023/06/26 11:46:23;;;;;;;7.60;1.90;;;22.40;99.90;;;;;;4986078;28;20061;-73
2023/06/26 11:49:37;;;;;;;7.47;2.10;;;22.50;99.90;;;;;;4989867;28;20484;-72
2023/06/26 11:52:45;;;;;;;;;;;22.60;99.90;;;;;;5031632;28;20099;-77
2023/06/26 11:55:44;;;;;;;8.10;2.00;;;22.80;99.90;;;;;;5039461;28;19993;-73
2023/06/26 11:58:31;;;;;;;7.00;2.00;;;23.00;99.90;;;;;;4986267;28;20125;-73
2023/06/26 12:02:01;;;;;;;9.23;2.33;;;23.50;99.90;;;;;;4985555;28;20048;-73
2023/06/26 12:05:27;;;;;;;8.32;2.08;;;23.80;99.30;;;;;;4981632;28;20134;-71
2023/06/26 12:08:54;;;;;;;11.93;2.03;;;23.70;99.40;;;;;;4984171;28;20077;-72
2023/06/26 12:11:49;;;;;;;9.05;2.25;;;23.20;99.60;;;;;;4969048;28;20058;-71
2023/06/26 12:15:13;;;;;;;6.00;2.03;;;23.30;99.90;;;;;;4986017;28;20085;-73
2023/06/26 12:17:45;;;;;;;10.10;2.10;;;23.60;99.80;;;;;;4968551;28;20133;-73
2023/06/26 12:20:25;;;;;;;5.93;1.65;;;23.70;99.80;;;;;;4908362;28;20124;-74
2023/06/26 12:23:42;;;;;;;10.63;2.33;;;23.80;99.60;;;;;;4985809;28;20159;-73
2023/06/26 12:26:34;;;;;;;7.85;2.05;;;24.00;99.70;;;;;;4964698;28;20054;-73
2023/06/26 12:29:33;;;;;;;7.40;1.90;;;24.00;99.40;;;;;;4982618;28;20061;-74
2023/06/26 12:32:10;;;;;;;9.32;2.30;;;24.10;99.10;;;;;;4956282;28;20095;-72
2023/06/26 12:35:18;;;;;;;6.65;1.80;;;24.00;99.30;;;;;;4984491;28;20045;-75
2023/06/26 12:38:15;;;;;;;7.13;1.98;;;24.00;98.80;;;;;;4952629;28;20133;-73
2023/06/26 12:40:50;;;;;;;7.50;2.13;;;23.80;98.70;;;;;;4936581;28;20141;-75
2023/06/26 12:44:10;;;;;;;6.65;2.00;;;23.70;99.00;;;;;;4984558;28;20046;-73
2023/06/26 12:47:17;;;;;;;7.88;1.77;;;23.60;98.90;;;;;;4967133;28;20054;-74
2023/06/26 12:50:05;;;;;;;7.03;2.03;;;24.00;98.90;;;;;;4928460;29;20043;-73
2023/06/26 12:53:31;;;;;;;11.27;2.22;;;23.60;98.90;;;;;;4895402;29;20078;-74
2023/06/26 12:59:13;;;;;;;;;;;23.40;98.60;;;;;;4983056;28;20062;-75
2023/06/26 13:02:25;;;;;;;6.60;2.05;;;23.50;99.10;;;;;;4982568;28;19937;-73
2023/06/26 13:05:28;;;;;;;7.63;2.03;;;24.00;98.80;;;;;;4968221;28;20050;-76
2023/06/26 13:08:28;;;;;;;5.43;1.88;;;24.20;98.60;;;;;;4988348;28;20053;-76
2023/06/26 13:11:36;;;;;;;7.32;2.20;;;24.10;98.30;;;;;;5035155;28;20067;-76
2023/06/26 13:14:29;;;;;;;6.05;1.90;;;24.20;97.90;;;;;;5036126;28;20056;-76
2023/06/26 13:17:21;;;;;;;5.35;1.88;;;24.10;98.20;;;;;;5019695;28;20113;-77
2023/06/26 13:20:26;;;;;;;8.57;1.88;;;24.00;98.20;;;;;;5026488;28;20610;-76
2023/06/26 13:23:02;;;;;;;7.68;1.83;;;24.10;98.40;;;;;;5038142;28;20040;-77
2023/06/26 13:25:54;;;;;;;6.88;1.88;;;24.10;98.50;;;;;;5034674;28;20602;-77
2023/06/26 13:28:56;;;;;;;7.75;1.60;;;24.10;98.30;;;;;;5036622;28;20087;-76
2023/06/26 13:32:16;;;;;;;8.45;1.88;;;24.30;98.20;;;;;;5033195;28;20059;-79
2023/06/26 13:35:22;;;;;;;9.20;1.80;;;24.50;98.30;;;;;;5036122;28;20056;-77
2023/06/26 13:38:26;;;;;;;7.90;1.80;;;24.10;98.00;;;;;;5020014;28;20054;-75
2023/06/26 13:41:29;;;;;;;8.90;2.08;;;24.00;98.10;;;;;;5020077;28;20044;-76
2023/06/26 13:44:34;;;;;;;8.02;1.85;;;24.20;98.00;;;;;;5018621;28;20053;-75
2023/06/26 13:50:20;;;;;;;5.65;1.70;;;24.10;98.20;;;;;;5022928;28;20041;-75
2023/06/26 13:52:47;;;;;;;6.68;1.73;;;24.10;97.90;;;;;;5030261;28;20067;-71
2023/06/26 13:55:22;;;;;;;7.13;1.75;;;24.40;97.90;;;;;;5027730;28;20194;-72
2023/06/26 13:57:51;;;;;;;6.10;1.77;;;24.60;97.50;;;;;;5024746;28;20530;-71
2023/06/26 14:00:28;;;;;;;6.82;1.85;;;24.90;97.30;;;;;;5020525;28;20057;-71
2023/06/26 14:03:03;;;;;;;7.22;2.13;;;24.80;96.70;;;;;;5048019;28;20122;-71
2023/06/26 14:05:35;;;;;;;7.95;2.00;;;24.70;97.00;;;;;;5056213;28;20071;-70
2023/06/26 14:08:10;;;;;;;7.47;2.40;;;24.50;97.00;;;;;;5024703;28;20045;-72
2023/06/26 14:10:36;;;;;;;6.60;1.65;;;24.50;97.20;;;;;;5040367;28;20068;-72
2023/06/26 14:13:15;;;;;;;7.35;2.10;;;24.50;96.90;;;;;;5040154;28;20048;-72
2023/06/26 14:15:41;;;;;;;6.55;1.50;;;24.60;97.10;;;;;;5023125;28;20045;-73
2023/06/26 14:18:14;;;;;;;6.45;1.80;;;24.70;96.60;;;;;;5006550;28;20053;-71
2023/06/26 14:20:53;;;;;;;7.30;1.90;;;24.50;96.50;;;;;;5042566;28;20565;-73
2023/06/26 14:23:29;;;;;;;7.40;2.00;;;24.70;96.80;;;;;;5024775;28;20057;-71
2023/06/26 14:25:57;;;;;;;8.25;2.33;;;24.90;96.50;;;;;;5023719;28;20053;-75
2023/06/26 14:28:33;;;;;;;6.90;1.80;;;25.10;96.10;;;;;;4975011;28;20049;-72
2023/06/26 14:31:31;;;;;;;5.93;1.60;;;25.20;95.70;;;;;;5012263;28;20554;-73
2023/06/26 14:34:03;;;;;;;6.57;1.98;;;25.10;95.40;;;;;;5039898;28;20059;-72
2023/06/26 14:37:03;;;;;;;6.20;1.50;;;25.30;95.20;;;;;;5038392;28;20463;-73
2023/06/26 14:39:38;;;;;;;7.20;2.00;;;25.50;94.80;;;;;;5005047;28;20507;-72
2023/06/26 14:42:52;;;;;;;7.55;2.15;;;25.60;94.80;;;;;;5024644;28;20048;-74
2023/06/26 14:45:23;;;;;;;6.38;1.85;;;25.60;94.50;;;;;;5033814;28;20087;-73